Time;durP1;ratioP1;P1;durP2;ratioP2;P2;SDS_P1;SDS_P2;PMS_P1;PMS_P2;Temp;Humidity;BMP_temperature;BMP_pressure;BME280_temperature;BME280_humidity;BME280_pressure;Samples;Min_cycle;Max_cycle;Signal;HPM_P1;HPM_P2
2022/07/20 00:00:11;;;;;;;1198.27;999.90;;;28.80;62.30;;;;;;5025100;28;20463;-79
2022/07/20 00:02:38;;;;;;;1200.20;999.90;;;28.80;62.40;;;;;;5022162;28;20482;-79
2022/07/20 00:05:06;;;;;;;1203.90;999.90;;;28.80;62.50;;;;;;5025194;28;20457;-80
2022/07/20 00:07:34;;;;;;;1198.00;999.90;;;28.80;62.50;;;;;;5029379;28;20920;-79
2022/07/20 00:12:45;;;;;;;1206.20;999.90;;;28.70;62.70;;;;;;5027268;28;20438;-79
2022/07/20 00:15:12;;;;;;;1197.63;999.90;;;28.70;62.80;;;;;;5026892;28;20454;-79
2022/07/20 00:17:39;;;;;;;1199.63;999.90;;;28.70;62.80;;;;;;5031543;28;20464;-79
2022/07/20 00:20:07;;;;;;;1211.07;999.90;;;28.70;62.90;;;;;;5040436;28;20481;-80
2022/07/20 00:22:35;;;;;;;1202.33;999.90;;;28.60;62.80;;;;;;5013827;28;21236;-80
2022/07/20 00:25:03;;;;;;;1194.30;999.90;;;28.60;62.90;;;;;;5032349;28;20457;-80
2022/07/20 00:27:30;;;;;;;1189.23;999.90;;;28.60;62.90;;;;;;5037843;28;20454;-80
2022/07/20 00:29:57;;;;;;;1202.20;999.90;;;28.50;62.90;;;;;;5026007;28;20457;-80
2022/07/20 00:32:23;;;;;;;1198.47;999.90;;;28.60;63.00;;;;;;5034170;28;20454;-79
2022/07/20 00:34:50;;;;;;;1204.27;999.90;;;28.50;63.10;;;;;;5046511;28;20453;-80
2022/07/20 00:37:17;;;;;;;1201.43;999.90;;;28.50;63.10;;;;;;5035040;28;20530;-80
2022/07/20 00:39:45;;;;;;;1197.33;999.90;;;28.50;63.20;;;;;;5030352;28;20709;-80
2022/07/20 00:42:12;;;;;;;1198.83;999.90;;;28.50;63.30;;;;;;5013816;28;20462;-80
2022/07/20 00:44:38;;;;;;;1197.13;999.90;;;28.40;63.20;;;;;;5020169;28;20482;-80
2022/07/20 00:47:05;;;;;;;1189.80;999.90;;;28.40;63.30;;;;;;5023644;28;20457;-80
2022/07/20 00:49:32;;;;;;;1187.30;999.90;;;28.40;63.30;;;;;;5038092;28;20457;-81
2022/07/20 00:51:59;;;;;;;1193.20;999.90;;;28.40;63.40;;;;;;5023553;28;20992;-80
2022/07/20 00:54:26;;;;;;;1191.90;999.90;;;28.40;63.40;;;;;;5018822;28;20433;-79
2022/07/20 00:56:54;;;;;;;1198.67;999.90;;;28.30;63.50;;;;;;5039369;28;20550;-80
2022/07/20 00:59:21;;;;;;;1185.30;999.90;;;28.30;63.60;;;;;;5031146;28;20850;-81
2022/07/20 01:01:47;;;;;;;1197.60;999.90;;;28.30;63.60;;;;;;5037062;28;20457;-80
2022/07/20 01:04:14;;;;;;;1193.30;999.90;;;28.20;63.70;;;;;;5030316;28;20424;-79
2022/07/20 01:06:41;;;;;;;1189.13;999.90;;;28.20;63.70;;;;;;5029830;28;20433;-79
2022/07/20 01:09:08;;;;;;;1189.97;999.90;;;28.20;63.80;;;;;;5029882;28;20446;-79
2022/07/20 01:11:35;;;;;;;1177.10;999.90;;;28.20;63.90;;;;;;5034953;28;20810;-79
2022/07/20 01:14:05;;;;;;;1181.60;999.90;;;28.10;63.90;;;;;;5030472;28;20423;-79
2022/07/20 01:16:32;;;;;;;1182.13;999.90;;;28.10;63.90;;;;;;5017494;28;20472;-80
2022/07/20 01:18:59;;;;;;;1185.67;999.90;;;28.10;64.00;;;;;;5027919;28;20436;-80
2022/07/20 01:21:28;;;;;;;1195.50;999.90;;;28.10;64.10;;;;;;5036937;28;20445;-81
2022/07/20 01:23:54;;;;;;;1178.07;999.90;;;28.00;64.10;;;;;;5026401;28;20451;-80
2022/07/20 01:26:21;;;;;;;1184.73;999.90;;;28.00;64.10;;;;;;5033015;28;20469;-80
2022/07/20 01:28:48;;;;;;;1175.03;999.90;;;28.00;64.20;;;;;;5034016;28;20461;-80
2022/07/20 01:31:15;;;;;;;1178.17;999.90;;;28.00;64.30;;;;;;5023037;28;20453;-80
2022/07/20 01:33:42;;;;;;;1179.73;999.90;;;28.00;64.30;;;;;;5035579;28;20926;-80
2022/07/20 01:36:10;;;;;;;1182.83;999.90;;;27.90;64.40;;;;;;5028431;28;20443;-80
2022/07/20 01:38:38;;;;;;;1170.13;999.90;;;27.90;64.50;;;;;;5031295;28;20469;-80
2022/07/20 01:41:05;;;;;;;1177.50;999.90;;;27.90;64.60;;;;;;5026820;28;20488;-80
2022/07/20 01:43:31;;;;;;;1177.80;999.90;;;27.80;64.60;;;;;;5020174;28;20455;-80
2022/07/20 01:45:58;;;;;;;1167.40;999.90;;;27.80;64.70;;;;;;5027910;28;20991;-79
2022/07/20 01:48:25;;;;;;;1172.90;999.90;;;27.80;64.70;;;;;;5027863;28;20912;-79
2022/07/20 01:50:52;;;;;;;1156.33;999.90;;;27.80;64.80;;;;;;5016855;28;20455;-79
2022/07/20 01:53:18;;;;;;;1177.83;999.90;;;27.80;65.00;;;;;;5033045;28;20992;-80
2022/07/20 01:55:46;;;;;;;1158.07;999.90;;;27.70;65.00;;;;;;5015796;28;20811;-79
2022/07/20 01:58:13;;;;;;;1168.73;999.90;;;27.70;65.00;;;;;;5038803;28;20415;-81
2022/07/20 02:00:40;;;;;;;1169.93;999.90;;;27.70;65.10;;;;;;5030248;28;20545;-80
2022/07/20 02:03:07;;;;;;;1160.80;999.90;;;27.70;65.20;;;;;;5015906;28;20461;-79
2022/07/20 02:05:34;;;;;;;1163.97;999.90;;;27.70;65.30;;;;;;5026724;28;20845;-78
2022/07/20 02:08:00;;;;;;;1165.53;999.90;;;27.60;65.20;;;;;;5026133;28;20450;-79
2022/07/20 02:10:27;;;;;;;1168.03;999.90;;;27.60;65.30;;;;;;5019634;28;20482;-79
2022/07/20 02:12:55;;;;;;;1170.07;999.90;;;27.60;65.30;;;;;;5025876;28;20833;-82
2022/07/20 02:18:07;;;;;;;1167.23;999.90;;;27.60;65.40;;;;;;5022627;28;20443;-83
2022/07/20 02:20:34;;;;;;;1162.93;999.90;;;27.50;65.30;;;;;;5051557;28;20500;-83
2022/07/20 02:23:01;;;;;;;1159.70;999.90;;;27.50;65.30;;;;;;5029370;28;20436;-83
2022/07/20 02:25:28;;;;;;;1159.30;999.90;;;27.50;65.40;;;;;;5031700;28;20775;-83
2022/07/20 02:27:56;;;;;;;1158.43;999.90;;;27.40;65.40;;;;;;5039500;28;20441;-83
2022/07/20 02:30:23;;;;;;;1153.83;999.90;;;27.40;65.50;;;;;;5025297;28;20430;-82
2022/07/20 02:32:50;;;;;;;1166.00;999.90;;;27.40;65.50;;;;;;5038689;28;20458;-82
2022/07/20 02:35:17;;;;;;;1151.97;999.90;;;27.40;65.60;;;;;;5043650;28;20459;-82
2022/07/20 02:37:44;;;;;;;1158.93;999.90;;;27.30;65.60;;;;;;5026675;28;20833;-82
2022/07/20 02:40:11;;;;;;;1162.00;999.90;;;27.30;65.60;;;;;;5041005;28;20474;-83
2022/07/20 02:42:38;;;;;;;1167.10;999.90;;;27.30;65.70;;;;;;5019157;28;20462;-85
2022/07/20 02:45:07;;;;;;;1162.23;999.90;;;27.30;65.80;;;;;;5015161;28;20458;-83
2022/07/20 02:47:42;;;;;;;1149.17;999.90;;;27.30;65.80;;;;;;5018970;28;20454;-83
2022/07/20 02:50:11;;;;;;;1161.17;999.90;;;27.20;65.80;;;;;;5041536;28;20448;-83
2022/07/20 02:52:38;;;;;;;1167.97;999.90;;;27.20;65.90;;;;;;5035077;28;20458;-83
2022/07/20 02:55:06;;;;;;;1146.20;999.90;;;27.20;66.00;;;;;;5030995;28;20469;-84
2022/07/20 02:57:32;;;;;;;1144.73;999.90;;;27.20;65.90;;;;;;5031971;28;20429;-83
2022/07/20 02:59:59;;;;;;;1148.60;999.90;;;27.20;66.00;;;;;;5034769;28;20512;-78
2022/07/20 03:02:28;;;;;;;1158.83;999.90;;;27.10;66.00;;;;;;5021167;28;20494;-78
2022/07/20 03:04:54;;;;;;;1156.63;999.90;;;27.10;66.10;;;;;;5032125;28;20913;-80
2022/07/20 03:07:21;;;;;;;1150.50;999.90;;;27.10;66.10;;;;;;5023644;28;20441;-81
2022/07/20 03:09:48;;;;;;;1156.77;999.90;;;27.10;66.20;;;;;;5033762;28;20444;-80
2022/07/20 03:12:15;;;;;;;1166.43;999.90;;;27.00;66.00;;;;;;5035480;28;20464;-79
2022/07/20 03:14:41;;;;;;;1166.13;999.90;;;27.00;66.10;;;;;;5036975;28;20448;-80
2022/07/20 03:17:08;;;;;;;1163.43;999.90;;;27.00;66.20;;;;;;5032159;28;20452;-80
2022/07/20 03:19:36;;;;;;;1158.37;999.90;;;27.00;66.30;;;;;;5037627;28;20453;-79
2022/07/20 03:22:03;;;;;;;1157.90;999.90;;;26.90;66.20;;;;;;5026949;28;20454;-81
2022/07/20 03:24:30;;;;;;;1171.17;999.90;;;26.90;66.20;;;;;;5025614;28;20467;-79
2022/07/20 03:26:57;;;;;;;1158.23;999.90;;;26.90;66.30;;;;;;5030410;28;20807;-79
2022/07/20 03:29:23;;;;;;;1159.60;999.90;;;26.90;66.40;;;;;;5039495;28;20449;-79
2022/07/20 03:31:50;;;;;;;1149.60;999.90;;;26.90;66.50;;;;;;5033864;28;20831;-80
2022/07/20 03:34:17;;;;;;;1145.03;999.90;;;26.80;66.40;;;;;;5017982;28;20424;-79
2022/07/20 03:36:45;;;;;;;1153.10;999.90;;;26.80;66.40;;;;;;5016433;28;20791;-80
2022/07/20 03:39:12;;;;;;;1159.33;999.90;;;26.80;66.50;;;;;;5035435;28;20449;-79
2022/07/20 03:41:38;;;;;;;1146.13;999.90;;;26.80;66.50;;;;;;5021809;28;20457;-79
2022/07/20 03:44:05;;;;;;;1146.20;999.90;;;26.70;66.50;;;;;;5021801;28;20775;-80
2022/07/20 03:46:32;;;;;;;1138.73;999.90;;;26.70;66.50;;;;;;5033364;28;20457;-79
2022/07/20 03:48:59;;;;;;;1140.13;999.90;;;26.70;66.60;;;;;;5035619;28;20464;-80
2022/07/20 03:51:25;;;;;;;1142.03;999.90;;;26.70;66.70;;;;;;5015980;28;20446;-80
2022/07/20 03:53:53;;;;;;;1128.27;999.90;;;26.70;66.70;;;;;;5030123;28;20462;-81
2022/07/20 03:56:21;;;;;;;1128.93;999.90;;;26.60;66.60;;;;;;5020530;28;20433;-80
2022/07/20 03:58:48;;;;;;;1146.20;999.90;;;26.60;66.70;;;;;;5020912;28;20463;-80
2022/07/20 04:01:15;;;;;;;1137.37;999.90;;;26.60;66.70;;;;;;5033081;28;20484;-80
2022/07/20 04:03:41;;;;;;;1137.53;999.90;;;26.60;66.70;;;;;;5019487;28;20855;-80
2022/07/20 04:06:08;;;;;;;1135.80;999.90;;;26.50;66.70;;;;;;5029063;28;20459;-80
2022/07/20 04:08:35;;;;;;;1131.40;999.90;;;26.60;66.80;;;;;;5019002;28;20463;-79
2022/07/20 04:11:03;;;;;;;1140.40;999.90;;;26.50;66.80;;;;;;5028613;28;20990;-79
2022/07/20 04:13:30;;;;;;;1133.63;999.90;;;26.50;67.70;;;;;;5021816;28;20451;-79
2022/07/20 04:15:56;;;;;;;1129.43;999.90;;;26.50;66.90;;;;;;5019342;28;20469;-79
2022/07/20 04:18:23;;;;;;;1143.87;999.90;;;26.50;67.00;;;;;;5043773;28;20466;-79
2022/07/20 04:20:50;;;;;;;1150.23;999.90;;;26.50;67.00;;;;;;5028418;28;20474;-79
2022/07/20 04:23:17;;;;;;;1130.83;999.90;;;26.40;67.00;;;;;;5024324;28;20450;-79
2022/07/20 04:25:43;;;;;;;1152.13;999.90;;;26.40;67.00;;;;;;5022667;28;20449;-77
2022/07/20 04:28:11;;;;;;;1129.87;999.90;;;26.40;67.10;;;;;;5044260;28;20449;-78
2022/07/20 04:30:38;;;;;;;1133.47;999.90;;;26.40;67.10;;;;;;5030217;28;20800;-78
2022/07/20 04:33:05;;;;;;;1144.30;999.90;;;26.40;67.20;;;;;;5036610;28;20436;-78
2022/07/20 04:35:32;;;;;;;1131.63;999.90;;;26.40;67.20;;;;;;5015350;28;20482;-78
2022/07/20 04:37:59;;;;;;;1136.97;999.90;;;26.40;67.30;;;;;;5029032;28;20445;-79
2022/07/20 04:40:26;;;;;;;1132.67;999.90;;;26.30;67.10;;;;;;5031513;28;20486;-80
2022/07/20 04:42:53;;;;;;;1133.23;999.90;;;26.30;67.10;;;;;;5029132;28;20433;-79
2022/07/20 04:45:21;;;;;;;1144.17;999.90;;;26.30;67.20;;;;;;5027961;28;20821;-78
2022/07/20 04:47:50;;;;;;;1137.67;999.90;;;26.30;67.20;;;;;;5038454;28;20440;-80
2022/07/20 04:50:16;;;;;;;1122.67;999.90;;;26.30;67.20;;;;;;5035367;28;20421;-79
2022/07/20 04:52:43;;;;;;;1141.50;999.90;;;26.30;67.20;;;;;;5032758;28;20818;-80
2022/07/20 04:55:10;;;;;;;1126.23;999.90;;;26.20;67.10;;;;;;5031202;28;20466;-79
2022/07/20 04:57:37;;;;;;;1132.17;999.90;;;26.20;67.10;;;;;;5038909;28;20445;-80
2022/07/20 05:00:05;;;;;;;1123.27;999.90;;;26.20;67.10;;;;;;5020866;28;20451;-80
2022/07/20 05:02:33;;;;;;;1133.40;999.90;;;26.20;67.20;;;;;;5018540;28;20522;-80
2022/07/20 05:05:00;;;;;;;1130.23;999.90;;;26.20;67.20;;;;;;5025110;28;20532;-79
2022/07/20 05:07:27;;;;;;;1128.23;999.90;;;26.20;67.30;;;;;;5038410;28;20942;-80
2022/07/20 05:09:54;;;;;;;1129.20;999.90;;;26.20;67.30;;;;;;5044355;28;20474;-78
2022/07/20 05:12:20;;;;;;;1123.40;999.90;;;26.20;67.30;;;;;;5035916;28;20464;-80
2022/07/20 05:14:47;;;;;;;1123.00;999.90;;;26.10;67.20;;;;;;5016809;28;20474;-80
2022/07/20 05:17:14;;;;;;;1122.50;999.90;;;26.10;67.30;;;;;;5040102;28;20461;-79
2022/07/20 05:19:42;;;;;;;1126.03;999.90;;;26.10;67.30;;;;;;5019936;28;20471;-79
2022/07/20 05:22:08;;;;;;;1125.65;999.90;;;26.10;67.40;;;;;;5022025;28;21001;-78
2022/07/20 05:24:36;;;;;;;1130.25;999.90;;;26.10;67.50;;;;;;5026381;28;20189;-79
2022/07/20 05:27:03;;;;;;;1107.53;999.90;;;26.10;67.50;;;;;;5032582;28;20211;-79
2022/07/20 05:29:29;;;;;;;1125.33;999.90;;;26.10;67.50;;;;;;5025703;28;20448;-78
2022/07/20 05:31:56;;;;;;;1121.67;999.90;;;26.10;67.50;;;;;;5020335;28;21242;-79
2022/07/20 05:34:23;;;;;;;1115.63;999.90;;;26.10;67.60;;;;;;5032900;28;20500;-78
2022/07/20 05:36:51;;;;;;;1123.50;999.90;;;26.10;67.60;;;;;;5024734;28;20470;-77
2022/07/20 05:39:18;;;;;;;1123.82;999.90;;;26.10;67.60;;;;;;5031217;28;20291;-78
2022/07/20 05:41:45;;;;;;;1125.00;999.90;;;26.10;67.50;;;;;;5036105;28;20219;-78
2022/07/20 05:44:11;;;;;;;1119.90;999.90;;;26.20;67.30;;;;;;5026109;28;20715;-77
2022/07/20 05:46:38;;;;;;;1128.83;999.90;;;26.40;67.10;;;;;;5028348;28;20230;-78
2022/07/20 05:49:05;;;;;;;1138.20;999.90;;;26.70;66.70;;;;;;5031605;28;20459;-78
2022/07/20 05:51:34;;;;;;;1131.13;999.90;;;27.00;66.20;;;;;;5022162;28;20968;-78
2022/07/20 05:54:02;;;;;;;1145.47;999.90;;;27.30;65.80;;;;;;5033817;28;20458;-79
2022/07/20 05:56:29;;;;;;;1163.07;999.90;;;27.40;65.10;;;;;;5030107;28;20485;-82
2022/07/20 05:58:55;;;;;;;1150.77;999.90;;;27.70;64.70;;;;;;5034978;28;20510;-82
2022/07/20 06:01:22;;;;;;;1163.30;999.90;;;27.90;64.20;;;;;;5020064;28;20832;-82
2022/07/20 06:03:49;;;;;;;1173.93;999.90;;;28.10;63.70;;;;;;5029938;28;20427;-80
2022/07/20 06:06:21;;;;;;;1165.93;999.90;;;28.20;63.30;;;;;;5024984;28;20474;-81
2022/07/20 06:08:47;;;;;;;1178.63;999.90;;;28.40;63.00;;;;;;5033385;28;20825;-81
2022/07/20 06:11:16;;;;;;;1196.77;999.90;;;28.50;62.60;;;;;;5045518;28;20446;-81
2022/07/20 06:13:43;;;;;;;1193.43;999.90;;;28.60;62.30;;;;;;5023505;28;20458;-83
2022/07/20 06:16:10;;;;;;;1194.13;999.90;;;28.80;62.10;;;;;;5028783;28;20466;-82
2022/07/20 06:18:38;;;;;;;1190.43;999.90;;;28.90;61.80;;;;;;5024030;28;20450;-82
2022/07/20 06:21:06;;;;;;;1197.30;999.90;;;29.00;61.60;;;;;;5027885;28;20958;-81
2022/07/20 06:23:32;;;;;;;1197.37;999.90;;;29.10;61.30;;;;;;5022812;28;20589;-82
2022/07/20 06:26:00;;;;;;;1204.70;999.90;;;29.20;61.10;;;;;;5030232;28;20470;-80
2022/07/20 06:28:28;;;;;;;1211.57;999.90;;;29.30;60.90;;;;;;5028275;28;20473;-80
2022/07/20 06:30:55;;;;;;;1200.40;999.90;;;29.40;60.80;;;;;;5035748;28;20436;-81
2022/07/20 06:33:23;;;;;;;1219.47;999.90;;;29.50;60.60;;;;;;5025449;28;20967;-84
2022/07/20 06:35:49;;;;;;;1218.37;999.90;;;29.60;60.40;;;;;;5026146;28;20537;-81
2022/07/20 06:38:16;;;;;;;1224.20;999.90;;;29.70;60.30;;;;;;5031934;28;20461;-81
2022/07/20 06:40:44;;;;;;;1227.47;999.90;;;29.70;60.00;;;;;;5026999;28;20492;-81
2022/07/20 06:43:11;;;;;;;1226.83;999.90;;;29.80;59.90;;;;;;5023632;28;20480;-81
2022/07/20 06:45:39;;;;;;;1227.63;999.90;;;30.00;59.80;;;;;;5041066;28;20434;-80
2022/07/20 06:48:06;;;;;;;1225.03;999.90;;;30.00;59.60;;;;;;5019663;28;20462;-81
2022/07/20 06:50:34;;;;;;;1233.70;999.90;;;30.10;59.50;;;;;;5026720;28;20799;-81
2022/07/20 06:53:01;;;;;;;1233.63;999.90;;;30.20;59.50;;;;;;5014280;28;20525;-81
2022/07/20 06:55:27;;;;;;;1245.73;999.90;;;30.30;59.40;;;;;;5018026;28;20490;-83
2022/07/20 06:57:54;;;;;;;1242.77;999.90;;;30.40;59.20;;;;;;5023760;28;20447;-83
2022/07/20 07:00:21;;;;;;;1237.93;999.90;;;30.40;59.10;;;;;;5034118;28;20830;-83
2022/07/20 07:02:49;;;;;;;1234.53;999.90;;;30.50;59.00;;;;;;5020865;28;20982;-82
2022/07/20 07:05:16;;;;;;;1242.00;999.90;;;30.60;58.90;;;;;;5030986;28;20446;-83
2022/07/20 07:07:42;;;;;;;1242.17;999.90;;;30.70;58.80;;;;;;5024807;28;20458;-81
2022/07/20 07:10:09;;;;;;;1244.47;999.90;;;30.70;58.60;;;;;;5041612;28;20480;-82
2022/07/20 07:12:36;;;;;;;1243.53;999.90;;;30.80;58.70;;;;;;5029676;28;20981;-82
2022/07/20 07:15:03;;;;;;;1247.00;999.90;;;30.80;58.60;;;;;;5011875;28;20454;-82
2022/07/20 07:17:30;;;;;;;1250.50;999.90;;;30.90;58.60;;;;;;5034364;28;20465;-84
2022/07/20 07:19:59;;;;;;;1244.77;999.90;;;30.90;58.40;;;;;;5035669;28;20480;-82
2022/07/20 07:22:26;;;;;;;1254.53;999.90;;;31.00;58.40;;;;;;5033654;28;20487;-82
2022/07/20 07:24:53;;;;;;;1249.63;999.90;;;31.10;58.40;;;;;;5032647;28;20517;-82
2022/07/20 07:27:20;;;;;;;1251.37;999.90;;;31.10;58.20;;;;;;5037488;28;20449;-82
2022/07/20 07:29:47;;;;;;;1252.47;999.90;;;31.20;58.20;;;;;;5041157;28;20462;-81
2022/07/20 07:32:13;;;;;;;1255.97;999.90;;;31.20;58.00;;;;;;5041050;28;20481;-80
2022/07/20 07:34:40;;;;;;;1257.70;999.90;;;31.30;58.10;;;;;;5015009;28;20466;-80
2022/07/20 07:37:08;;;;;;;1251.87;999.90;;;31.30;58.00;;;;;;5028108;28;20461;-81
2022/07/20 07:39:35;;;;;;;1256.73;999.90;;;31.40;57.90;;;;;;5033010;28;20942;-82
2022/07/20 07:42:02;;;;;;;1255.60;999.90;;;31.40;57.90;;;;;;5025566;28;20489;-81
2022/07/20 07:44:29;;;;;;;1254.87;999.90;;;31.40;57.70;;;;;;5029190;28;20465;-82
2022/07/20 07:46:55;;;;;;;1258.93;999.90;;;31.50;57.70;;;;;;5031193;28;20455;-80
2022/07/20 07:49:22;;;;;;;1257.10;999.90;;;31.60;57.60;;;;;;5037915;28;20956;-81
2022/07/20 07:51:49;;;;;;;1264.63;999.90;;;31.70;57.50;;;;;;5029579;28;20454;-83
2022/07/20 07:54:17;;;;;;;1251.87;999.90;;;31.70;57.30;;;;;;5038624;28;20467;-79
2022/07/20 07:56:44;;;;;;;1266.23;999.90;;;31.70;57.30;;;;;;5027081;28;20464;-81
2022/07/20 07:59:10;;;;;;;1268.60;999.90;;;31.80;57.10;;;;;;5040217;28;20457;-78
2022/07/20 08:01:37;;;;;;;1265.03;999.90;;;31.80;57.20;;;;;;5029130;28;20489;-77
2022/07/20 08:04:05;;;;;;;1263.67;999.90;;;31.80;57.20;;;;;;5037125;28;20450;-79
2022/07/20 08:06:32;;;;;;;1270.57;999.90;;;31.90;57.30;;;;;;5041725;28;20477;-80
2022/07/20 08:08:58;;;;;;;1262.17;999.90;;;31.90;57.30;;;;;;5037707;28;20832;-79
2022/07/20 08:11:27;;;;;;;1267.57;999.90;;;32.00;57.30;;;;;;5023598;28;20446;-78
2022/07/20 08:13:54;;;;;;;1274.13;999.90;;;32.00;57.30;;;;;;5032482;28;20769;-79
2022/07/20 08:16:21;;;;;;;1275.43;999.90;;;32.00;57.40;;;;;;5034250;28;20856;-81
2022/07/20 08:18:48;;;;;;;1260.97;999.90;;;31.90;57.40;;;;;;5030940;28;20479;-81
2022/07/20 08:21:15;;;;;;;1254.90;999.90;;;32.00;57.50;;;;;;5038505;28;21012;-80
2022/07/20 08:23:41;;;;;;;1266.60;999.90;;;32.00;57.60;;;;;;5038791;28;20451;-79
2022/07/20 08:26:10;;;;;;;1261.80;999.90;;;32.00;57.70;;;;;;5021692;28;20449;-80
2022/07/20 08:28:39;;;;;;;1266.97;999.90;;;32.00;57.80;;;;;;5045070;28;20812;-80
2022/07/20 08:31:06;;;;;;;1261.07;999.90;;;32.00;57.90;;;;;;5021704;28;20453;-79
2022/07/20 08:33:33;;;;;;;1264.40;999.90;;;32.00;58.00;;;;;;5040961;28;20810;-78
2022/07/20 08:36:00;;;;;;;1261.63;999.90;;;32.00;58.10;;;;;;5033012;28;20477;-79
2022/07/20 08:38:27;;;;;;;1270.37;999.90;;;32.00;58.20;;;;;;5021534;28;20483;-77
2022/07/20 08:40:54;;;;;;;1266.20;999.90;;;32.10;58.30;;;;;;5035267;28;20461;-76
2022/07/20 08:43:21;;;;;;;1264.03;999.90;;;32.10;58.40;;;;;;5035932;28;20487;-76
2022/07/20 08:45:50;;;;;;;1263.03;999.90;;;32.10;58.40;;;;;;5031387;28;20490;-76
2022/07/20 08:48:19;;;;;;;1270.30;999.90;;;32.00;58.40;;;;;;5038881;28;20456;-78
2022/07/20 08:50:47;;;;;;;1255.00;999.90;;;32.00;58.60;;;;;;5036192;28;20453;-76
2022/07/20 08:53:15;;;;;;;1259.77;999.90;;;32.00;58.80;;;;;;5039174;28;20828;-76
2022/07/20 08:55:41;;;;;;;1254.30;999.90;;;32.00;58.80;;;;;;5020314;28;20822;-77
2022/07/20 08:58:10;;;;;;;1262.87;999.90;;;32.00;58.90;;;;;;5038201;28;20458;-77
2022/07/20 09:00:37;;;;;;;1268.17;999.90;;;32.00;59.00;;;;;;5020263;28;20458;-77
2022/07/20 09:03:10;;;;;;;1269.93;999.90;;;32.00;59.20;;;;;;5020540;28;20869;-77
2022/07/20 09:05:39;;;;;;;1258.03;999.90;;;32.00;59.20;;;;;;5018631;28;20786;-77
2022/07/20 09:08:12;;;;;;;1265.57;999.90;;;32.00;59.40;;;;;;5028315;28;20469;-78
2022/07/20 09:10:42;;;;;;;1257.00;999.90;;;32.00;59.70;;;;;;5017511;28;20451;-82
2022/07/20 09:13:12;;;;;;;1266.77;999.90;;;32.00;59.70;;;;;;5024045;28;20483;-81
2022/07/20 09:15:41;;;;;;;1259.50;999.90;;;32.00;60.00;;;;;;5029160;28;20554;-82
2022/07/20 09:18:16;;;;;;;1254.20;999.90;;;32.00;59.90;;;;;;5030319;28;20458;-82
2022/07/20 09:20:45;;;;;;;1263.67;999.90;;;32.00;59.80;;;;;;5034678;28;20893;-81
2022/07/20 09:23:13;;;;;;;1254.60;999.90;;;32.00;59.70;;;;;;5032693;28;20500;-81
2022/07/20 09:25:51;;;;;;;1259.10;999.90;;;32.00;59.70;;;;;;5027323;28;20806;-81
2022/07/20 09:28:18;;;;;;;1249.50;999.90;;;32.00;59.80;;;;;;5032317;28;20476;-81
2022/07/20 09:30:54;;;;;;;1265.33;999.90;;;32.00;59.80;;;;;;5030391;28;20455;-81
2022/07/20 09:33:27;;;;;;;1255.77;999.90;;;32.00;59.80;;;;;;5037485;28;20465;-82
2022/07/20 09:35:54;;;;;;;1252.07;999.90;;;32.00;59.90;;;;;;5049863;28;20465;-79
2022/07/20 09:38:25;;;;;;;1259.43;999.90;;;32.00;59.80;;;;;;5036615;28;20998;-82
2022/07/20 09:40:53;;;;;;;1253.10;999.90;;;32.00;59.80;;;;;;5031895;28;20460;-81
2022/07/20 09:43:30;;;;;;;1257.73;999.90;;;32.00;60.00;;;;;;5035853;28;20473;-82
2022/07/20 09:46:10;;;;;;;1257.97;999.90;;;32.00;60.00;;;;;;5031869;28;20465;-82
2022/07/20 09:48:45;;;;;;;1258.03;999.90;;;32.00;60.00;;;;;;5036354;28;20506;-80
2022/07/20 09:51:19;;;;;;;1249.87;999.90;;;31.90;59.90;;;;;;5033863;28;20540;-82
2022/07/20 09:53:46;;;;;;;1254.33;999.90;;;32.00;60.00;;;;;;5035323;28;20462;-83
2022/07/20 09:56:16;;;;;;;1272.23;999.90;;;31.90;60.00;;;;;;5028776;28;20450;-83
2022/07/20 09:58:46;;;;;;;1258.90;999.90;;;31.90;60.10;;;;;;5026390;28;20465;-83
2022/07/20 10:01:16;;;;;;;1263.63;999.90;;;31.90;60.20;;;;;;5025260;28;20958;-81
2022/07/20 10:03:46;;;;;;;1263.73;999.90;;;31.90;60.30;;;;;;5035763;28;20520;-80
2022/07/20 10:06:13;;;;;;;1250.87;999.90;;;31.90;60.40;;;;;;5019755;28;20462;-82
2022/07/20 10:08:40;;;;;;;1255.23;999.90;;;31.90;60.50;;;;;;5027770;28;20459;-81
2022/07/20 10:11:07;;;;;;;1260.93;999.90;;;31.90;60.50;;;;;;5034793;28;21003;-82
2022/07/20 10:13:35;;;;;;;1260.57;999.90;;;31.80;60.40;;;;;;5025356;28;20458;-80
2022/07/20 10:16:06;;;;;;;1265.70;999.90;;;31.80;60.50;;;;;;5010018;28;20462;-83
2022/07/20 10:18:34;;;;;;;1261.80;999.90;;;31.80;60.40;;;;;;5017136;28;20470;-83
2022/07/20 10:21:35;;;;;;;1264.43;999.90;;;31.80;60.40;;;;;;5023308;28;20458;-82
2022/07/20 10:24:15;;;;;;;1266.40;999.90;;;31.80;60.50;;;;;;5019474;28;20457;-82
2022/07/20 10:26:42;;;;;;;1253.80;999.90;;;31.80;60.60;;;;;;5036004;28;20465;-82
2022/07/20 10:29:09;;;;;;;1240.17;999.90;;;31.80;60.70;;;;;;5024789;28;20834;-79
2022/07/20 10:31:49;;;;;;;1249.77;999.90;;;31.80;60.60;;;;;;5023627;28;20512;-82
2022/07/20 10:34:35;;;;;;;1247.07;999.90;;;31.80;60.70;;;;;;5021180;28;20984;-80
2022/07/20 10:37:27;;;;;;;1247.13;999.90;;;31.80;60.70;;;;;;5021541;28;21029;-82
2022/07/20 10:40:07;;;;;;;1243.90;999.90;;;31.80;60.90;;;;;;5021860;28;20471;-80
2022/07/20 10:42:37;;;;;;;1256.10;999.90;;;31.80;61.00;;;;;;5023083;28;20847;-81
2022/07/20 10:45:29;;;;;;;1247.03;999.90;;;31.70;61.00;;;;;;5029387;28;20879;-83
2022/07/20 10:47:57;;;;;;;1251.93;999.90;;;31.70;61.20;;;;;;5020785;28;20473;-83
2022/07/20 10:50:30;;;;;;;1250.90;999.90;;;31.70;61.30;;;;;;5015554;28;20480;-81
2022/07/20 10:52:59;;;;;;;1241.77;999.90;;;31.70;61.30;;;;;;5039823;28;20445;-81
2022/07/20 10:55:52;;;;;;;1242.57;999.90;;;31.70;61.40;;;;;;5025651;28;20465;-80
2022/07/20 10:58:22;;;;;;;1242.57;999.90;;;31.60;61.30;;;;;;5029531;28;21075;-82
2022/07/20 11:00:51;;;;;;;1254.93;999.90;;;31.70;61.40;;;;;;5032792;28;20956;-83
2022/07/20 11:03:19;;;;;;;1253.33;999.90;;;31.70;61.50;;;;;;5024311;28;21139;-82
2022/07/20 11:05:49;;;;;;;1251.00;999.90;;;31.60;61.50;;;;;;5034659;28;20940;-81
2022/07/20 11:08:17;;;;;;;1250.60;999.90;;;31.60;61.40;;;;;;5013583;28;20467;-83
2022/07/20 11:10:44;;;;;;;1251.13;999.90;;;31.60;61.50;;;;;;5036993;28;20465;-81
2022/07/20 11:13:12;;;;;;;1257.50;999.90;;;31.60;61.70;;;;;;5024315;28;20463;-81
2022/07/20 11:15:41;;;;;;;1251.63;999.90;;;31.60;61.70;;;;;;5027227;28;20469;-82
2022/07/20 11:18:09;;;;;;;1251.17;999.90;;;31.60;61.70;;;;;;5034895;28;20461;-79
2022/07/20 11:20:44;;;;;;;1256.70;999.90;;;31.60;61.70;;;;;;5031120;28;20466;-81
2022/07/20 11:23:13;;;;;;;1241.20;999.90;;;31.50;61.70;;;;;;5018186;28;20488;-79
2022/07/20 11:25:50;;;;;;;1247.40;999.90;;;31.60;61.80;;;;;;5037458;28;20469;-84
2022/07/20 11:28:18;;;;;;;1245.50;999.90;;;31.50;61.80;;;;;;5039957;28;20453;-81
2022/07/20 11:30:46;;;;;;;1247.53;999.90;;;31.60;61.90;;;;;;5034326;28;20435;-82
2022/07/20 11:33:13;;;;;;;1242.03;999.90;;;31.50;61.70;;;;;;5035099;28;20957;-80
2022/07/20 11:35:40;;;;;;;1253.97;999.90;;;31.50;61.80;;;;;;5023114;28;20467;-84
2022/07/20 11:38:07;;;;;;;1247.43;999.90;;;31.50;61.80;;;;;;5033235;28;20446;-83
2022/07/20 11:40:33;;;;;;;1241.07;999.90;;;31.50;61.70;;;;;;5029357;28;20462;-83
2022/07/20 11:43:10;;;;;;;1241.30;999.90;;;31.50;61.80;;;;;;5029882;28;20492;-84
2022/07/20 11:45:37;;;;;;;1251.47;999.90;;;31.50;61.70;;;;;;5035894;28;20464;-81
2022/07/20 11:48:17;;;;;;;1245.50;999.90;;;31.50;62.00;;;;;;5027730;28;20668;-83
2022/07/20 11:50:44;;;;;;;1242.40;999.90;;;31.50;62.10;;;;;;5032622;28;20452;-82
2022/07/20 11:53:23;;;;;;;1248.77;999.90;;;31.40;62.00;;;;;;5035477;28;20531;-80
2022/07/20 11:55:50;;;;;;;1250.63;999.90;;;31.40;62.10;;;;;;5020800;28;20466;-83
2022/07/20 11:58:26;;;;;;;1251.53;999.90;;;31.40;62.10;;;;;;5033937;28;20462;-83
2022/07/20 12:00:53;;;;;;;1243.03;999.90;;;31.40;62.00;;;;;;5034958;28;20440;-81
2022/07/20 12:03:22;;;;;;;1243.70;999.90;;;31.40;62.10;;;;;;5018244;28;20490;-80
2022/07/20 12:05:50;;;;;;;1241.27;999.90;;;31.40;62.10;;;;;;5031059;28;20462;-82
2022/07/20 12:08:18;;;;;;;1235.10;999.90;;;31.40;62.10;;;;;;5048002;28;20449;-82